sensor_id;sensor_type;location;lat;lon;timestamp;temperature;humidity
38183;DHT22;23991;52.430;10.586;2024-03-23T00:54:36;9.90;82.00
38183;DHT22;23991;52.430;10.586;2024-03-23T00:57:05;9.80;81.60
38183;DHT22;23991;52.430;10.586;2024-03-23T00:59:40;9.90;81.60
38183;DHT22;23991;52.430;10.586;2024-03-23T01:02:09;9.90;81.70
38183;DHT22;23991;52.430;10.586;2024-03-23T01:04:43;9.80;81.50
38183;DHT22;23991;52.430;10.586;2024-03-23T01:07:09;9.70;79.30
38183;DHT22;23991;52.430;10.586;2024-03-23T01:09:40;9.70;78.90
38183;DHT22;23991;52.430;10.586;2024-03-23T01:12:09;9.60;78.30
38183;DHT22;23991;52.430;10.586;2024-03-23T01:14:40;9.70;78.50
38183;DHT22;23991;52.430;10.586;2024-03-23T01:17:06;9.70;78.70
38183;DHT22;23991;52.430;10.586;2024-03-23T01:19:34;9.60;79.00
38183;DHT22;23991;52.430;10.586;2024-03-23T01:22:02;9.70;79.30
38183;DHT22;23991;52.430;10.586;2024-03-23T01:24:40;9.60;79.60
38183;DHT22;23991;52.430;10.586;2024-03-23T01:27:05;9.60;79.70
38183;DHT22;23991;52.430;10.586;2024-03-23T01:29:31;9.60;79.50
38183;DHT22;23991;52.430;10.586;2024-03-23T01:31:56;9.60;79.40
38183;DHT22;23991;52.430;10.586;2024-03-23T01:34:22;9.60;79.50
38183;DHT22;23991;52.430;10.586;2024-03-23T01:36:50;9.60;79.60
38183;DHT22;23991;52.430;10.586;2024-03-23T01:39:16;9.60;79.70
38183;DHT22;23991;52.430;10.586;2024-03-23T01:41:48;9.60;79.70
38183;DHT22;23991;52.430;10.586;2024-03-23T01:44:16;9.50;79.60
38183;DHT22;23991;52.430;10.586;2024-03-23T01:46:48;9.50;79.50
38183;DHT22;23991;52.430;10.586;2024-03-23T01:49:21;9.50;79.50
38183;DHT22;23991;52.430;10.586;2024-03-23T01:51:50;9.50;79.60
38183;DHT22;23991;52.430;10.586;2024-03-23T01:54:15;9.50;79.50
38183;DHT22;23991;52.430;10.586;2024-03-23T01:56:47;9.50;79.70
38183;DHT22;23991;52.430;10.586;2024-03-23T01:59:19;9.50;79.60
38183;DHT22;23991;52.430;10.586;2024-03-23T02:01:45;9.40;79.40
38183;DHT22;23991;52.430;10.586;2024-03-23T02:04:11;9.40;79.30
38183;DHT22;23991;52.430;10.586;2024-03-23T02:06:40;9.50;79.00
38183;DHT22;23991;52.430;10.586;2024-03-23T02:09:08;9.40;78.90
38183;DHT22;23991;52.430;10.586;2024-03-23T02:11:34;9.50;78.90
38183;DHT22;23991;52.430;10.586;2024-03-23T02:14:00;9.40;78.80
38183;DHT22;23991;52.430;10.586;2024-03-23T02:16:43;9.40;79.10
38183;DHT22;23991;52.430;10.586;2024-03-23T02:19:09;9.40;79.40
38183;DHT22;23991;52.430;10.586;2024-03-23T02:21:34;9.30;79.70
38183;DHT22;23991;52.430;10.586;2024-03-23T02:24:06;9.30;79.90
38183;DHT22;23991;52.430;10.586;2024-03-23T02:26:31;9.30;80.00
38183;DHT22;23991;52.430;10.586;2024-03-23T02:28:57;9.30;80.10
38183;DHT22;23991;52.430;10.586;2024-03-23T02:31:22;9.20;80.20
38183;DHT22;23991;52.430;10.586;2024-03-23T02:33:52;9.20;80.30
38183;DHT22;23991;52.430;10.586;2024-03-23T02:36:21;9.20;80.40
38183;DHT22;23991;52.430;10.586;2024-03-23T02:38:47;9.20;80.50
38183;DHT22;23991;52.430;10.586;2024-03-23T02:41:15;9.10;80.60
38183;DHT22;23991;52.430;10.586;2024-03-23T02:44:09;9.10;80.80
38183;DHT22;23991;52.430;10.586;2024-03-23T02:46:43;9.10;80.90
38183;DHT22;23991;52.430;10.586;2024-03-23T02:49:17;9.10;81.00
38183;DHT22;23991;52.430;10.586;2024-03-23T02:51:45;9.10;81.10
38183;DHT22;23991;52.430;10.586;2024-03-23T02:54:13;9.10;81.20
38183;DHT22;23991;52.430;10.586;2024-03-23T02:56:50;9.10;81.10
38183;DHT22;23991;52.430;10.586;2024-03-23T02:59:22;9.10;80.90
38183;DHT22;23991;52.430;10.586;2024-03-23T03:01:50;9.10;81.00
38183;DHT22;23991;52.430;10.586;2024-03-23T03:04:18;9.00;81.00
38183;DHT22;23991;52.430;10.586;2024-03-23T03:06:49;9.00;81.10
38183;DHT22;23991;52.430;10.586;2024-03-23T03:09:15;8.90;81.20
38183;DHT22;23991;52.430;10.586;2024-03-23T03:11:40;9.00;81.40
38183;DHT22;23991;52.430;10.586;2024-03-23T03:14:06;8.90;81.50
38183;DHT22;23991;52.430;10.586;2024-03-23T03:16:33;8.90;81.50
38183;DHT22;23991;52.430;10.586;2024-03-23T03:19:09;8.90;81.50
38183;DHT22;23991;52.430;10.586;2024-03-23T03:21:39;8.90;81.60
38183;DHT22;23991;52.430;10.586;2024-03-23T03:24:07;8.90;81.60
38183;DHT22;23991;52.430;10.586;2024-03-23T03:26:34;8.90;81.40
38183;DHT22;23991;52.430;10.586;2024-03-23T03:29:10;8.90;81.60
38183;DHT22;23991;52.430;10.586;2024-03-23T03:31:39;8.90;81.70
38183;DHT22;23991;52.430;10.586;2024-03-23T03:34:08;8.80;81.70
38183;DHT22;23991;52.430;10.586;2024-03-23T03:36:36;8.90;81.80
38183;DHT22;23991;52.430;10.586;2024-03-23T03:39:05;8.90;81.90
38183;DHT22;23991;52.430;10.586;2024-03-23T03:41:35;8.90;81.90
38183;DHT22;23991;52.430;10.586;2024-03-23T03:44:20;8.90;82.00
38183;DHT22;23991;52.430;10.586;2024-03-23T03:46:46;8.80;82.00
38183;DHT22;23991;52.430;10.586;2024-03-23T03:49:11;8.80;81.90
38183;DHT22;23991;52.430;10.586;2024-03-23T03:51:40;8.80;81.80
38183;DHT22;23991;52.430;10.586;2024-03-23T03:54:06;8.80;81.80
38183;DHT22;23991;52.430;10.586;2024-03-23T03:56:33;8.80;81.90
38183;DHT22;23991;52.430;10.586;2024-03-23T03:58:58;8.80;82.00
38183;DHT22;23991;52.430;10.586;2024-03-23T04:01:24;8.70;82.10
38183;DHT22;23991;52.430;10.586;2024-03-23T04:03:52;8.70;82.20
38183;DHT22;23991;52.430;10.586;2024-03-23T04:06:20;8.70;82.20
38183;DHT22;23991;52.430;10.586;2024-03-23T04:08:46;8.70;82.20
38183;DHT22;23991;52.430;10.586;2024-03-23T04:11:14;8.70;82.20
38183;DHT22;23991;52.430;10.586;2024-03-23T04:13:43;8.60;82.20
38183;DHT22;23991;52.430;10.586;2024-03-23T04:16:11;8.60;82.20
38183;DHT22;23991;52.430;10.586;2024-03-23T04:18:37;8.70;82.00
38183;DHT22;23991;52.430;10.586;2024-03-23T04:21:03;8.60;82.00
38183;DHT22;23991;52.430;10.586;2024-03-23T04:23:31;8.60;82.00
38183;DHT22;23991;52.430;10.586;2024-03-23T04:26:06;8.60;82.10
38183;DHT22;23991;52.430;10.586;2024-03-23T04:28:34;8.60;82.00
38183;DHT22;23991;52.430;10.586;2024-03-23T04:31:05;8.60;82.10
38183;DHT22;23991;52.430;10.586;2024-03-23T04:33:34;8.60;82.10
38183;DHT22;23991;52.430;10.586;2024-03-23T04:36:06;8.60;82.00
38183;DHT22;23991;52.430;10.586;2024-03-23T04:38:38;8.60;82.10
38183;DHT22;23991;52.430;10.586;2024-03-23T04:41:10;8.60;82.20
38183;DHT22;23991;52.430;10.586;2024-03-23T04:43:42;8.60;82.30
38183;DHT22;23991;52.430;10.586;2024-03-23T04:46:13;8.60;82.40
38183;DHT22;23991;52.430;10.586;2024-03-23T04:48:39;8.60;82.40
38183;DHT22;23991;52.430;10.586;2024-03-23T04:51:05;8.50;82.30
38183;DHT22;23991;52.430;10.586;2024-03-23T04:53:30;8.50;82.20
38183;DHT22;23991;52.430;10.586;2024-03-23T04:55:56;8.50;82.10
38183;DHT22;23991;52.430;10.586;2024-03-23T04:58:28;8.50;81.50
38183;DHT22;23991;52.430;10.586;2024-03-23T05:00:57;8.40;81.30
38183;DHT22;23991;52.430;10.586;2024-03-23T05:03:29;8.40;80.80
38183;DHT22;23991;52.430;10.586;2024-03-23T05:06:09;8.40;80.30
38183;DHT22;23991;52.430;10.586;2024-03-23T05:08:40;8.40;79.50
38183;DHT22;23991;52.430;10.586;2024-03-23T05:11:06;8.40;79.10
38183;DHT22;23991;52.430;10.586;2024-03-23T05:13:38;8.40;78.90
38183;DHT22;23991;52.430;10.586;2024-03-23T05:16:10;8.40;79.10
38183;DHT22;23991;52.430;10.586;2024-03-23T05:18:41;8.40;79.60
38183;DHT22;23991;52.430;10.586;2024-03-23T05:21:06;8.40;80.10
38183;DHT22;23991;52.430;10.586;2024-03-23T05:23:32;8.40;80.40
38183;DHT22;23991;52.430;10.586;2024-03-23T05:26:00;8.40;80.70
38183;DHT22;23991;52.430;10.586;2024-03-23T05:28:25;8.40;80.90
38183;DHT22;23991;52.430;10.586;2024-03-23T05:33:46;8.40;81.50
38183;DHT22;23991;52.430;10.586;2024-03-23T05:36:13;8.40;81.70
38183;DHT22;23991;52.430;10.586;2024-03-23T05:38:40;8.40;81.90
38183;DHT22;23991;52.430;10.586;2024-03-23T05:41:07;8.40;82.00
38183;DHT22;23991;52.430;10.586;2024-03-23T05:43:32;8.40;81.90
38183;DHT22;23991;52.430;10.586;2024-03-23T05:46:01;8.40;81.80
38183;DHT22;23991;52.430;10.586;2024-03-23T05:48:47;8.30;81.60
38183;DHT22;23991;52.430;10.586;2024-03-23T05:51:14;8.30;81.50
38183;DHT22;23991;52.430;10.586;2024-03-23T05:53:43;8.30;81.30
38183;DHT22;23991;52.430;10.586;2024-03-23T05:56:11;8.30;81.30
38183;DHT22;23991;52.430;10.586;2024-03-23T05:58:40;8.30;81.30
38183;DHT22;23991;52.430;10.586;2024-03-23T06:01:05;8.30;81.10
38183;DHT22;23991;52.430;10.586;2024-03-23T06:03:31;8.30;81.10
38183;DHT22;23991;52.430;10.586;2024-03-23T06:05:56;8.30;80.90
38183;DHT22;23991;52.430;10.586;2024-03-23T06:08:22;8.20;80.40
38183;DHT22;23991;52.430;10.586;2024-03-23T06:10:49;8.20;80.30
38183;DHT22;23991;52.430;10.586;2024-03-23T06:13:16;8.30;80.30
38183;DHT22;23991;52.430;10.586;2024-03-23T06:15:42;8.30;79.90
38183;DHT22;23991;52.430;10.586;2024-03-23T06:18:08;8.30;79.90
38183;DHT22;23991;52.430;10.586;2024-03-23T06:20:34;8.40;80.00
38183;DHT22;23991;52.430;10.586;2024-03-23T06:23:01;8.50;79.70
38183;DHT22;23991;52.430;10.586;2024-03-23T06:25:27;8.40;78.30
38183;DHT22;23991;52.430;10.586;2024-03-23T06:27:52;8.40;78.00
38183;DHT22;23991;52.430;10.586;2024-03-23T06:30:18;8.50;76.50
38183;DHT22;23991;52.430;10.586;2024-03-23T06:32:43;8.60;75.90
38183;DHT22;23991;52.430;10.586;2024-03-23T06:35:09;8.60;76.20
38183;DHT22;23991;52.430;10.586;2024-03-23T06:37:37;8.70;76.30
38183;DHT22;23991;52.430;10.586;2024-03-23T06:40:04;8.80;76.40
38183;DHT22;23991;52.430;10.586;2024-03-23T06:42:33;8.80;76.50
38183;DHT22;23991;52.430;10.586;2024-03-23T06:44:59;8.90;76.40
38183;DHT22;23991;52.430;10.586;2024-03-23T06:47:25;9.00;76.50
38183;DHT22;23991;52.430;10.586;2024-03-23T06:49:51;9.00;76.40
38183;DHT22;23991;52.430;10.586;2024-03-23T06:52:16;9.10;76.50
38183;DHT22;23991;52.430;10.586;2024-03-23T06:54:42;9.20;76.30
38183;DHT22;23991;52.430;10.586;2024-03-23T06:57:07;9.30;76.20
38183;DHT22;23991;52.430;10.586;2024-03-23T06:59:33;9.40;76.00
38183;DHT22;23991;52.430;10.586;2024-03-23T07:01:58;9.50;75.70
38183;DHT22;23991;52.430;10.586;2024-03-23T07:04:24;9.60;75.40
38183;DHT22;23991;52.430;10.586;2024-03-23T07:06:49;9.60;74.40
38183;DHT22;23991;52.430;10.586;2024-03-23T07:09:15;9.70;74.00
38183;DHT22;23991;52.430;10.586;2024-03-23T07:11:41;9.80;73.90
38183;DHT22;23991;52.430;10.586;2024-03-23T07:14:06;9.90;73.50
38183;DHT22;23991;52.430;10.586;2024-03-23T07:16:32;9.90;73.10
38183;DHT22;23991;52.430;10.586;2024-03-23T07:18:58;10.00;73.10
38183;DHT22;23991;52.430;10.586;2024-03-23T07:21:24;10.00;73.20
38183;DHT22;23991;52.430;10.586;2024-03-23T07:23:49;10.20;72.60
38183;DHT22;23991;52.430;10.586;2024-03-23T07:26:15;10.20;72.50
38183;DHT22;23991;52.430;10.586;2024-03-23T07:28:40;10.30;71.70
38183;DHT22;23991;52.430;10.586;2024-03-23T07:31:10;10.40;71.60
38183;DHT22;23991;52.430;10.586;2024-03-23T07:33:42;10.50;71.40
38183;DHT22;23991;52.430;10.586;2024-03-23T07:36:08;10.60;70.90
38183;DHT22;23991;52.430;10.586;2024-03-23T07:38:33;10.70;70.80
38183;DHT22;23991;52.430;10.586;2024-03-23T07:41:04;10.80;69.80
38183;DHT22;23991;52.430;10.586;2024-03-23T07:43:30;10.80;68.30
38183;DHT22;23991;52.430;10.586;2024-03-23T07:45:56;10.90;67.50
38183;DHT22;23991;52.430;10.586;2024-03-23T07:48:22;11.00;67.80
38183;DHT22;23991;52.430;10.586;2024-03-23T07:51:07;11.20;67.60
38183;DHT22;23991;52.430;10.586;2024-03-23T07:53:34;11.30;67.00
38183;DHT22;23991;52.430;10.586;2024-03-23T07:56:05;11.40;65.70
38183;DHT22;23991;52.430;10.586;2024-03-23T07:58:31;11.40;65.50
38183;DHT22;23991;52.430;10.586;2024-03-23T08:01:12;11.50;65.20
38183;DHT22;23991;52.430;10.586;2024-03-23T08:03:45;11.80;65.10
38183;DHT22;23991;52.430;10.586;2024-03-23T08:06:18;12.10;63.60
38183;DHT22;23991;52.430;10.586;2024-03-23T08:08:55;12.00;63.00
38183;DHT22;23991;52.430;10.586;2024-03-23T08:11:27;12.10;62.50
38183;DHT22;23991;52.430;10.586;2024-03-23T08:13:57;12.10;61.50
38183;DHT22;23991;52.430;10.586;2024-03-23T08:16:26;12.10;61.90
38183;DHT22;23991;52.430;10.586;2024-03-23T08:18:57;12.20;62.20
38183;DHT22;23991;52.430;10.586;2024-03-23T08:21:23;12.20;61.30
38183;DHT22;23991;52.430;10.586;2024-03-23T08:23:53;12.30;61.50
38183;DHT22;23991;52.430;10.586;2024-03-23T08:26:19;12.30;62.00
38183;DHT22;23991;52.430;10.586;2024-03-23T08:28:47;12.30;61.70
38183;DHT22;23991;52.430;10.586;2024-03-23T08:31:16;12.40;61.20
38183;DHT22;23991;52.430;10.586;2024-03-23T08:33:45;12.40;61.20
38183;DHT22;23991;52.430;10.586;2024-03-23T08:36:13;12.40;60.70
38183;DHT22;23991;52.430;10.586;2024-03-23T08:38:40;12.60;60.30
38183;DHT22;23991;52.430;10.586;2024-03-23T08:41:12;12.70;59.80
38183;DHT22;23991;52.430;10.586;2024-03-23T08:43:38;12.60;59.60
38183;DHT22;23991;52.430;10.586;2024-03-23T08:46:12;12.70;59.30
38183;DHT22;23991;52.430;10.586;2024-03-23T08:48:40;12.70;59.70
38183;DHT22;23991;52.430;10.586;2024-03-23T08:51:13;12.90;59.60
38183;DHT22;23991;52.430;10.586;2024-03-23T08:53:42;13.00;59.30
38183;DHT22;23991;52.430;10.586;2024-03-23T08:56:11;13.10;59.30
38183;DHT22;23991;52.430;10.586;2024-03-23T08:58:41;13.10;59.80
38183;DHT22;23991;52.430;10.586;2024-03-23T09:01:11;13.30;59.30
38183;DHT22;23991;52.430;10.586;2024-03-23T09:03:38;13.50;58.60
38183;DHT22;23991;52.430;10.586;2024-03-23T09:06:08;13.70;58.30
38183;DHT22;23991;52.430;10.586;2024-03-23T09:08:43;13.80;58.50
38183;DHT22;23991;52.430;10.586;2024-03-23T09:11:11;13.90;57.90
38183;DHT22;23991;52.430;10.586;2024-03-23T09:13:45;14.00;57.70
38183;DHT22;23991;52.430;10.586;2024-03-23T09:16:11;14.10;57.70
38183;DHT22;23991;52.430;10.586;2024-03-23T09:18:39;14.10;57.80
38183;DHT22;23991;52.430;10.586;2024-03-23T09:21:15;14.20;57.60
38183;DHT22;23991;52.430;10.586;2024-03-23T09:23:43;14.20;58.10
38183;DHT22;23991;52.430;10.586;2024-03-23T09:26:09;14.30;57.40
38183;DHT22;23991;52.430;10.586;2024-03-23T09:28:41;14.40;57.40
38183;DHT22;23991;52.430;10.586;2024-03-23T09:31:09;14.60;57.10
38183;DHT22;23991;52.430;10.586;2024-03-23T09:33:45;14.80;56.80
38183;DHT22;23991;52.430;10.586;2024-03-23T09:36:16;14.80;56.30
38183;DHT22;23991;52.430;10.586;2024-03-23T09:38:42;15.00;55.90
38183;DHT22;23991;52.430;10.586;2024-03-23T09:43:55;15.40;55.60
38183;DHT22;23991;52.430;10.586;2024-03-23T09:46:21;15.50;54.90
38183;DHT22;23991;52.430;10.586;2024-03-23T09:48:49;15.40;54.50
38183;DHT22;23991;52.430;10.586;2024-03-23T09:51:15;15.40;54.90
38183;DHT22;23991;52.430;10.586;2024-03-23T09:53:40;15.40;54.70
38183;DHT22;23991;52.430;10.586;2024-03-23T09:56:10;15.40;54.80
38183;DHT22;23991;52.430;10.586;2024-03-23T09:58:38;15.60;54.40
38183;DHT22;23991;52.430;10.586;2024-03-23T10:01:07;15.50;53.60
38183;DHT22;23991;52.430;10.586;2024-03-23T10:03:42;15.70;53.30
38183;DHT22;23991;52.430;10.586;2024-03-23T10:06:14;15.60;52.50
38183;DHT22;23991;52.430;10.586;2024-03-23T10:08:42;15.70;53.30
38183;DHT22;23991;52.430;10.586;2024-03-23T10:11:20;15.70;52.60
38183;DHT22;23991;52.430;10.586;2024-03-23T10:14:05;15.70;51.80
38183;DHT22;23991;52.430;10.586;2024-03-23T10:16:33;15.80;50.90
38183;DHT22;23991;52.430;10.586;2024-03-23T10:18:59;16.00;49.40
38183;DHT22;23991;52.430;10.586;2024-03-23T10:21:27;15.80;49.50
38183;DHT22;23991;52.430;10.586;2024-03-23T10:23:55;16.10;47.70
38183;DHT22;23991;52.430;10.586;2024-03-23T10:26:27;16.30;47.30
38183;DHT22;23991;52.430;10.586;2024-03-23T10:29:02;16.50;46.20
38183;DHT22;23991;52.430;10.586;2024-03-23T10:31:39;17.20;45.20
38183;DHT22;23991;52.430;10.586;2024-03-23T10:34:06;17.80;43.00
38183;DHT22;23991;52.430;10.586;2024-03-23T10:36:34;18.50;43.10
38183;DHT22;23991;52.430;10.586;2024-03-23T10:39:04;18.80;41.10
38183;DHT22;23991;52.430;10.586;2024-03-23T10:41:54;18.80;40.10
38183;DHT22;23991;52.430;10.586;2024-03-23T10:44:19;19.10;40.80
38183;DHT22;23991;52.430;10.586;2024-03-23T10:46:45;19.60;38.70
38183;DHT22;23991;52.430;10.586;2024-03-23T10:49:14;20.30;37.60
38183;DHT22;23991;52.430;10.586;2024-03-23T10:51:39;20.60;35.90
38183;DHT22;23991;52.430;10.586;2024-03-23T10:54:09;21.10;35.80
38183;DHT22;23991;52.430;10.586;2024-03-23T10:56:42;21.10;34.70
38183;DHT22;23991;52.430;10.586;2024-03-23T10:59:08;20.80;35.00
38183;DHT22;23991;52.430;10.586;2024-03-23T11:02:06;20.20;35.30
38183;DHT22;23991;52.430;10.586;2024-03-23T11:04:37;19.30;36.20
38183;DHT22;23991;52.430;10.586;2024-03-23T11:09:50;18.20;39.50
38183;DHT22;23991;52.430;10.586;2024-03-23T11:15:06;18.60;39.20
38183;DHT22;23991;52.430;10.586;2024-03-23T11:17:36;19.10;38.60
38183;DHT22;23991;52.430;10.586;2024-03-23T11:20:05;19.40;38.00
38183;DHT22;23991;52.430;10.586;2024-03-23T11:22:44;20.10;37.60
38183;DHT22;23991;52.430;10.586;2024-03-23T11:25:16;20.20;35.00
38183;DHT22;23991;52.430;10.586;2024-03-23T11:27:43;20.00;35.60
38183;DHT22;23991;52.430;10.586;2024-03-23T11:30:16;20.10;36.10
38183;DHT22;23991;52.430;10.586;2024-03-23T11:32:43;20.20;36.10
38183;DHT22;23991;52.430;10.586;2024-03-23T11:35:27;20.70;35.30
38183;DHT22;23991;52.430;10.586;2024-03-23T11:38:15;20.90;34.80
38183;DHT22;23991;52.430;10.586;2024-03-23T11:40:43;21.50;35.00
38183;DHT22;23991;52.430;10.586;2024-03-23T11:43:13;22.00;34.60
38183;DHT22;23991;52.430;10.586;2024-03-23T11:45:39;22.70;32.50
38183;DHT22;23991;52.430;10.586;2024-03-23T11:48:10;23.00;31.40
38183;DHT22;23991;52.430;10.586;2024-03-23T11:50:46;22.70;31.80
38183;DHT22;23991;52.430;10.586;2024-03-23T11:53:21;20.10;35.50
38183;DHT22;23991;52.430;10.586;2024-03-23T11:55:57;19.50;37.30
38183;DHT22;23991;52.430;10.586;2024-03-23T11:58:29;18.20;39.90
38183;DHT22;23991;52.430;10.586;2024-03-23T12:00:59;17.40;42.90
38183;DHT22;23991;52.430;10.586;2024-03-23T12:03:29;17.80;43.40
38183;DHT22;23991;52.430;10.586;2024-03-23T12:05:59;17.80;41.90
38183;DHT22;23991;52.430;10.586;2024-03-23T12:08:40;18.00;41.20
38183;DHT22;23991;52.430;10.586;2024-03-23T12:13:35;18.30;41.40
38183;DHT22;23991;52.430;10.586;2024-03-23T12:16:20;18.20;42.40
38183;DHT22;23991;52.430;10.586;2024-03-23T12:18:46;18.20;42.60
38183;DHT22;23991;52.430;10.586;2024-03-23T12:21:13;18.70;41.10
38183;DHT22;23991;52.430;10.586;2024-03-23T12:23:39;19.40;40.00
38183;DHT22;23991;52.430;10.586;2024-03-23T12:26:05;20.00;39.20
38183;DHT22;23991;52.430;10.586;2024-03-23T12:28:32;20.30;37.70
38183;DHT22;23991;52.430;10.586;2024-03-23T12:30:57;20.40;37.30
38183;DHT22;23991;52.430;10.586;2024-03-23T12:33:23;19.90;37.20
38183;DHT22;23991;52.430;10.586;2024-03-23T12:35:52;19.80;37.80
38183;DHT22;23991;52.430;10.586;2024-03-23T12:38:19;19.90;38.00
38183;DHT22;23991;52.430;10.586;2024-03-23T12:40:49;19.60;38.60
38183;DHT22;23991;52.430;10.586;2024-03-23T12:43:17;19.10;38.70
38183;DHT22;23991;52.430;10.586;2024-03-23T12:45:49;18.20;39.40
38183;DHT22;23991;52.430;10.586;2024-03-23T12:48:21;17.50;41.70
38183;DHT22;23991;52.430;10.586;2024-03-23T12:50:57;17.20;43.30
38183;DHT22;23991;52.430;10.586;2024-03-23T12:53:23;16.90;43.40
38183;DHT22;23991;52.430;10.586;2024-03-23T12:55:49;16.80;44.50
38183;DHT22;23991;52.430;10.586;2024-03-23T12:58:17;16.70;43.90
38183;DHT22;23991;52.430;10.586;2024-03-23T13:00:45;16.40;44.50
38183;DHT22;23991;52.430;10.586;2024-03-23T13:03:17;16.60;44.20
38183;DHT22;23991;52.430;10.586;2024-03-23T13:05:51;16.70;44.20
38183;DHT22;23991;52.430;10.586;2024-03-23T13:08:19;16.70;43.60
38183;DHT22;23991;52.430;10.586;2024-03-23T13:10:52;16.80;43.50
38183;DHT22;23991;52.430;10.586;2024-03-23T13:13:27;16.70;43.90
38183;DHT22;23991;52.430;10.586;2024-03-23T13:15:52;16.70;43.00
38183;DHT22;23991;52.430;10.586;2024-03-23T13:18:21;16.60;42.70
38183;DHT22;23991;52.430;10.586;2024-03-23T13:20:46;16.50;43.00
38183;DHT22;23991;52.430;10.586;2024-03-23T13:23:16;16.20;42.80
38183;DHT22;23991;52.430;10.586;2024-03-23T13:25:58;16.00;44.00
38183;DHT22;23991;52.430;10.586;2024-03-23T13:28:29;15.90;44.90
38183;DHT22;23991;52.430;10.586;2024-03-23T13:31:01;16.10;45.50
38183;DHT22;23991;52.430;10.586;2024-03-23T13:33:30;16.40;45.10
38183;DHT22;23991;52.430;10.586;2024-03-23T13:35:57;16.90;44.60
38183;DHT22;23991;52.430;10.586;2024-03-23T13:38:26;17.10;43.60
38183;DHT22;23991;52.430;10.586;2024-03-23T13:40:56;17.40;42.50
38183;DHT22;23991;52.430;10.586;2024-03-23T13:43:22;17.50;41.60
38183;DHT22;23991;52.430;10.586;2024-03-23T13:45:53;17.30;42.40
38183;DHT22;23991;52.430;10.586;2024-03-23T13:48:21;17.00;43.20
38183;DHT22;23991;52.430;10.586;2024-03-23T13:51:04;17.00;42.90
38183;DHT22;23991;52.430;10.586;2024-03-23T13:53:41;17.10;43.10
38183;DHT22;23991;52.430;10.586;2024-03-23T13:56:07;16.80;43.50
38183;DHT22;23991;52.430;10.586;2024-03-23T13:58:32;16.70;43.70
38183;DHT22;23991;52.430;10.586;2024-03-23T14:00:58;16.90;43.20
38183;DHT22;23991;52.430;10.586;2024-03-23T14:03:27;16.90;44.30
38183;DHT22;23991;52.430;10.586;2024-03-23T14:05:58;17.40;43.60
38183;DHT22;23991;52.430;10.586;2024-03-23T14:08:23;17.30;43.30
38183;DHT22;23991;52.430;10.586;2024-03-23T14:10:49;17.80;43.20
38183;DHT22;23991;52.430;10.586;2024-03-23T14:13:17;17.60;42.00
38183;DHT22;23991;52.430;10.586;2024-03-23T14:15:43;17.30;42.70
38183;DHT22;23991;52.430;10.586;2024-03-23T14:18:09;17.40;42.30
38183;DHT22;23991;52.430;10.586;2024-03-23T14:20:34;17.40;42.00
38183;DHT22;23991;52.430;10.586;2024-03-23T14:23:00;18.00;40.50
38183;DHT22;23991;52.430;10.586;2024-03-23T14:25:26;18.20;39.80
38183;DHT22;23991;52.430;10.586;2024-03-23T14:27:54;18.90;39.30
38183;DHT22;23991;52.430;10.586;2024-03-23T14:30:20;19.30;37.50
38183;DHT22;23991;52.430;10.586;2024-03-23T14:32:46;19.50;35.80
38183;DHT22;23991;52.430;10.586;2024-03-23T14:35:12;19.60;35.30
38183;DHT22;23991;52.430;10.586;2024-03-23T14:37:37;19.20;35.30
38183;DHT22;23991;52.430;10.586;2024-03-23T14:40:04;18.80;36.00
38183;DHT22;23991;52.430;10.586;2024-03-23T14:42:30;18.90;35.70
38183;DHT22;23991;52.430;10.586;2024-03-23T14:44:56;19.00;36.40
38183;DHT22;23991;52.430;10.586;2024-03-23T14:47:22;19.00;35.90
38183;DHT22;23991;52.430;10.586;2024-03-23T14:49:48;18.80;35.60
38183;DHT22;23991;52.430;10.586;2024-03-23T14:52:18;19.10;35.40
38183;DHT22;23991;52.430;10.586;2024-03-23T14:54:45;19.50;35.70
38183;DHT22;23991;52.430;10.586;2024-03-23T14:57:11;19.80;35.00
38183;DHT22;23991;52.430;10.586;2024-03-23T14:59:36;19.50;35.10
38183;DHT22;23991;52.430;10.586;2024-03-23T15:02:09;19.60;34.60
38183;DHT22;23991;52.430;10.586;2024-03-23T15:04:35;19.10;35.10
38183;DHT22;23991;52.430;10.586;2024-03-23T15:07:01;18.90;35.80
38183;DHT22;23991;52.430;10.586;2024-03-23T15:09:26;18.60;36.80
38183;DHT22;23991;52.430;10.586;2024-03-23T15:11:52;18.30;37.50
38183;DHT22;23991;52.430;10.586;2024-03-23T15:14:20;17.90;38.60
38183;DHT22;23991;52.430;10.586;2024-03-23T15:16:46;18.00;39.00
38183;DHT22;23991;52.430;10.586;2024-03-23T15:19:14;17.10;41.20
38183;DHT22;23991;52.430;10.586;2024-03-23T15:21:40;17.00;42.10
38183;DHT22;23991;52.430;10.586;2024-03-23T15:24:07;16.90;42.50
38183;DHT22;23991;52.430;10.586;2024-03-23T15:26:34;16.70;43.50
38183;DHT22;23991;52.430;10.586;2024-03-23T15:29:00;16.60;44.30
38183;DHT22;23991;52.430;10.586;2024-03-23T15:31:25;16.50;44.90
38183;DHT22;23991;52.430;10.586;2024-03-23T15:33:51;16.40;44.70
38183;DHT22;23991;52.430;10.586;2024-03-23T15:36:17;15.70;46.30
38183;DHT22;23991;52.430;10.586;2024-03-23T15:38:44;15.70;47.10
38183;DHT22;23991;52.430;10.586;2024-03-23T15:41:10;15.30;47.40
38183;DHT22;23991;52.430;10.586;2024-03-23T15:43:35;14.90;48.40
38183;DHT22;23991;52.430;10.586;2024-03-23T15:46:08;14.90;48.80
38183;DHT22;23991;52.430;10.586;2024-03-23T15:48:36;15.10;48.60
38183;DHT22;23991;52.430;10.586;2024-03-23T15:51:04;15.40;47.60
38183;DHT22;23991;52.430;10.586;2024-03-23T15:53:31;15.40;47.30
38183;DHT22;23991;52.430;10.586;2024-03-23T15:55:59;15.60;46.60
38183;DHT22;23991;52.430;10.586;2024-03-23T15:58:27;15.90;45.70
38183;DHT22;23991;52.430;10.586;2024-03-23T16:03:28;16.20;44.00
38183;DHT22;23991;52.430;10.586;2024-03-23T16:05:56;16.20;43.00
38183;DHT22;23991;52.430;10.586;2024-03-23T16:08:24;16.30;41.20
38183;DHT22;23991;52.430;10.586;2024-03-23T16:10:50;16.20;40.60
38183;DHT22;23991;52.430;10.586;2024-03-23T16:13:16;16.40;40.40
38183;DHT22;23991;52.430;10.586;2024-03-23T16:15:43;16.30;39.40
38183;DHT22;23991;52.430;10.586;2024-03-23T16:18:09;15.90;40.10
38183;DHT22;23991;52.430;10.586;2024-03-23T16:20:40;15.90;40.50
38183;DHT22;23991;52.430;10.586;2024-03-23T16:23:06;15.90;40.50
38183;DHT22;23991;52.430;10.586;2024-03-23T16:25:32;15.80;41.10
38183;DHT22;23991;52.430;10.586;2024-03-23T16:27:58;15.70;41.50
38183;DHT22;23991;52.430;10.586;2024-03-23T16:30:24;15.40;42.40
38183;DHT22;23991;52.430;10.586;2024-03-23T16:32:51;15.30;43.00
38183;DHT22;23991;52.430;10.586;2024-03-23T16:35:20;15.20;41.70
38183;DHT22;23991;52.430;10.586;2024-03-23T16:37:49;14.70;41.50
38183;DHT22;23991;52.430;10.586;2024-03-23T16:40:15;14.80;42.30
38183;DHT22;23991;52.430;10.586;2024-03-23T16:42:42;14.40;42.80